Jefferson, South Carolina
Current Conditions -  °F | °C
As of 6:15 AM on Monday 22 Dec 2014 (Local Time) from KHVS Reporting Station
Overcast Overcast  
Wind Chill: 38°   Ceiling: 500
Heat Index: 43°   Visibility: 7mi
Dew Point: 43°   Wind: 8mph
Humidity: 100%   Direction: 20°NNE
Pressure: 30.09"   Gusts: 16mph
Location:  34.65°N, 80.39°W
Report Text: KHVS 221115Z AUTO 02007G14KT 7SM OVC005 06/06 A3009 RMK AO2
Loading
Personal Weather Stations






























Interactive Weather Map New forecast layout! Learn more

10-Day Weather Forecast

Advertisements
Track Severe Weather on mobile